sensor_id;sensor_type;location;lat;lon;timestamp;P1;durP1;ratioP1;P2;durP2;ratioP2
76113;SDS011;64845;53.086;5.834;2023-07-16T00:02:00;15.82;;;4.40;;
76113;SDS011;64845;53.086;5.834;2023-07-16T00:04:25;18.92;;;4.70;;
76113;SDS011;64845;53.086;5.834;2023-07-16T00:06:51;21.55;;;4.13;;
76113;SDS011;64845;53.086;5.834;2023-07-16T00:09:16;13.10;;;3.67;;
76113;SDS011;64845;53.086;5.834;2023-07-16T00:11:42;15.32;;;3.42;;
76113;SDS011;64845;53.086;5.834;2023-07-16T00:14:07;12.45;;;3.45;;
76113;SDS011;64845;53.086;5.834;2023-07-16T00:16:35;13.40;;;3.40;;
76113;SDS011;64845;53.086;5.834;2023-07-16T00:19:01;19.42;;;3.33;;
76113;SDS011;64845;53.086;5.834;2023-07-16T00:21:26;12.95;;;3.38;;
76113;SDS011;64845;53.086;5.834;2023-07-16T00:23:51;12.23;;;3.35;;
76113;SDS011;64845;53.086;5.834;2023-07-16T00:26:17;12.10;;;3.20;;
76113;SDS011;64845;53.086;5.834;2023-07-16T00:28:42;10.40;;;3.25;;
76113;SDS011;64845;53.086;5.834;2023-07-16T00:31:08;12.02;;;3.33;;
76113;SDS011;64845;53.086;5.834;2023-07-16T00:33:34;17.23;;;3.28;;
76113;SDS011;64845;53.086;5.834;2023-07-16T00:36:00;12.40;;;3.58;;
76113;SDS011;64845;53.086;5.834;2023-07-16T00:38:26;11.85;;;3.25;;
76113;SDS011;64845;53.086;5.834;2023-07-16T00:40:51;12.77;;;3.28;;
76113;SDS011;64845;53.086;5.834;2023-07-16T00:43:17;24.20;;;3.22;;
76113;SDS011;64845;53.086;5.834;2023-07-16T00:45:42;15.75;;;3.40;;
76113;SDS011;64845;53.086;5.834;2023-07-16T00:48:10;19.13;;;4.38;;
76113;SDS011;64845;53.086;5.834;2023-07-16T00:50:37;10.80;;;2.90;;
76113;SDS011;64845;53.086;5.834;2023-07-16T00:53:07;10.00;;;3.00;;
76113;SDS011;64845;53.086;5.834;2023-07-16T00:55:33;15.55;;;3.30;;
76113;SDS011;64845;53.086;5.834;2023-07-16T00:58:05;13.63;;;3.45;;
76113;SDS011;64845;53.086;5.834;2023-07-16T01:03:04;13.73;;;3.63;;
76113;SDS011;64845;53.086;5.834;2023-07-16T01:05:34;13.45;;;2.97;;
76113;SDS011;64845;53.086;5.834;2023-07-16T01:08:08;17.02;;;4.10;;
76113;SDS011;64845;53.086;5.834;2023-07-16T01:10:39;17.15;;;4.50;;
76113;SDS011;64845;53.086;5.834;2023-07-16T01:13:04;16.33;;;4.15;;
76113;SDS011;64845;53.086;5.834;2023-07-16T01:15:30;13.30;;;3.85;;
76113;SDS011;64845;53.086;5.834;2023-07-16T01:17:55;13.60;;;3.42;;
76113;SDS011;64845;53.086;5.834;2023-07-16T01:20:21;11.75;;;3.40;;
76113;SDS011;64845;53.086;5.834;2023-07-16T01:22:53;19.38;;;3.75;;
76113;SDS011;64845;53.086;5.834;2023-07-16T01:31:18;15.63;;;3.38;;
76113;SDS011;64845;53.086;5.834;2023-07-16T01:33:46;16.08;;;3.67;;
76113;SDS011;64845;53.086;5.834;2023-07-16T01:36:12;13.05;;;2.90;;
76113;SDS011;64845;53.086;5.834;2023-07-16T01:38:38;14.95;;;3.13;;
76113;SDS011;64845;53.086;5.834;2023-07-16T01:41:04;15.82;;;3.80;;
76113;SDS011;64845;53.086;5.834;2023-07-16T01:43:29;15.38;;;3.20;;
76113;SDS011;64845;53.086;5.834;2023-07-16T01:45:54;11.70;;;2.65;;
76113;SDS011;64845;53.086;5.834;2023-07-16T01:50:56;10.30;;;3.13;;
76113;SDS011;64845;53.086;5.834;2023-07-16T01:53:21;9.55;;;2.80;;
76113;SDS011;64845;53.086;5.834;2023-07-16T01:55:47;15.20;;;3.10;;
76113;SDS011;64845;53.086;5.834;2023-07-16T01:58:12;9.77;;;2.70;;
76113;SDS011;64845;53.086;5.834;2023-07-16T02:00:38;8.60;;;2.58;;
76113;SDS011;64845;53.086;5.834;2023-07-16T02:03:03;13.90;;;2.92;;
76113;SDS011;64845;53.086;5.834;2023-07-16T02:05:29;12.82;;;3.15;;
76113;SDS011;64845;53.086;5.834;2023-07-16T02:07:54;13.27;;;2.88;;
76113;SDS011;64845;53.086;5.834;2023-07-16T02:10:19;12.23;;;2.88;;
76113;SDS011;64845;53.086;5.834;2023-07-16T02:12:45;15.77;;;2.70;;
76113;SDS011;64845;53.086;5.834;2023-07-16T02:15:11;10.18;;;2.78;;
76113;SDS011;64845;53.086;5.834;2023-07-16T02:17:36;14.45;;;3.22;;
76113;SDS011;64845;53.086;5.834;2023-07-16T02:20:01;12.75;;;2.90;;
76113;SDS011;64845;53.086;5.834;2023-07-16T02:22:30;9.93;;;2.83;;
76113;SDS011;64845;53.086;5.834;2023-07-16T02:24:55;16.02;;;3.30;;
76113;SDS011;64845;53.086;5.834;2023-07-16T02:27:21;14.88;;;3.55;;
76113;SDS011;64845;53.086;5.834;2023-07-16T02:29:46;19.65;;;4.30;;
76113;SDS011;64845;53.086;5.834;2023-07-16T02:32:12;14.63;;;5.18;;
76113;SDS011;64845;53.086;5.834;2023-07-16T02:34:37;15.07;;;4.28;;
76113;SDS011;64845;53.086;5.834;2023-07-16T02:37:03;13.32;;;4.00;;
76113;SDS011;64845;53.086;5.834;2023-07-16T02:39:28;15.85;;;3.97;;
76113;SDS011;64845;53.086;5.834;2023-07-16T02:41:54;15.98;;;4.93;;
76113;SDS011;64845;53.086;5.834;2023-07-16T02:44:19;14.77;;;4.68;;
76113;SDS011;64845;53.086;5.834;2023-07-16T02:46:44;14.60;;;4.43;;
76113;SDS011;64845;53.086;5.834;2023-07-16T02:49:10;15.00;;;4.85;;
76113;SDS011;64845;53.086;5.834;2023-07-16T02:51:35;19.63;;;5.25;;
76113;SDS011;64845;53.086;5.834;2023-07-16T02:54:01;16.20;;;5.05;;
76113;SDS011;64845;53.086;5.834;2023-07-16T02:56:26;12.52;;;4.97;;
76113;SDS011;64845;53.086;5.834;2023-07-16T02:58:51;20.80;;;5.07;;
76113;SDS011;64845;53.086;5.834;2023-07-16T03:01:17;20.92;;;5.45;;
76113;SDS011;64845;53.086;5.834;2023-07-16T03:03:42;14.88;;;5.38;;
76113;SDS011;64845;53.086;5.834;2023-07-16T03:06:07;13.93;;;5.10;;
76113;SDS011;64845;53.086;5.834;2023-07-16T03:08:33;15.85;;;4.93;;
76113;SDS011;64845;53.086;5.834;2023-07-16T03:10:59;13.38;;;4.70;;
76113;SDS011;64845;53.086;5.834;2023-07-16T03:13:24;12.73;;;4.45;;
76113;SDS011;64845;53.086;5.834;2023-07-16T03:15:50;15.30;;;5.10;;
76113;SDS011;64845;53.086;5.834;2023-07-16T03:18:17;15.18;;;5.00;;
76113;SDS011;64845;53.086;5.834;2023-07-16T03:20:43;18.15;;;5.43;;
76113;SDS011;64845;53.086;5.834;2023-07-16T03:23:09;17.85;;;4.90;;
76113;SDS011;64845;53.086;5.834;2023-07-16T03:25:34;17.98;;;5.30;;
76113;SDS011;64845;53.086;5.834;2023-07-16T03:27:59;14.15;;;4.75;;
76113;SDS011;64845;53.086;5.834;2023-07-16T03:30:25;14.40;;;5.50;;
76113;SDS011;64845;53.086;5.834;2023-07-16T03:32:50;20.02;;;5.00;;
76113;SDS011;64845;53.086;5.834;2023-07-16T03:35:16;18.90;;;5.63;;
76113;SDS011;64845;53.086;5.834;2023-07-16T03:37:41;12.65;;;4.25;;
76113;SDS011;64845;53.086;5.834;2023-07-16T03:40:13;19.52;;;6.47;;
76113;SDS011;64845;53.086;5.834;2023-07-16T03:42:40;18.92;;;5.15;;
76113;SDS011;64845;53.086;5.834;2023-07-16T03:45:06;16.40;;;5.95;;
76113;SDS011;64845;53.086;5.834;2023-07-16T03:47:32;19.63;;;5.85;;
76113;SDS011;64845;53.086;5.834;2023-07-16T03:49:57;16.58;;;4.65;;
76113;SDS011;64845;53.086;5.834;2023-07-16T03:52:23;13.45;;;5.38;;
76113;SDS011;64845;53.086;5.834;2023-07-16T03:54:49;24.35;;;5.72;;
76113;SDS011;64845;53.086;5.834;2023-07-16T03:57:15;17.17;;;5.88;;
76113;SDS011;64845;53.086;5.834;2023-07-16T03:59:40;16.83;;;5.60;;
76113;SDS011;64845;53.086;5.834;2023-07-16T04:02:07;16.63;;;5.13;;
76113;SDS011;64845;53.086;5.834;2023-07-16T04:04:33;17.73;;;5.50;;
76113;SDS011;64845;53.086;5.834;2023-07-16T04:06:59;16.92;;;5.32;;
76113;SDS011;64845;53.086;5.834;2023-07-16T04:09:24;17.77;;;5.68;;
76113;SDS011;64845;53.086;5.834;2023-07-16T04:11:49;20.88;;;5.57;;
76113;SDS011;64845;53.086;5.834;2023-07-16T04:14:15;15.60;;;5.50;;
76113;SDS011;64845;53.086;5.834;2023-07-16T04:16:40;14.68;;;5.43;;
76113;SDS011;64845;53.086;5.834;2023-07-16T04:19:05;20.48;;;6.03;;
76113;SDS011;64845;53.086;5.834;2023-07-16T04:21:32;14.30;;;5.82;;
76113;SDS011;64845;53.086;5.834;2023-07-16T04:23:57;17.42;;;5.97;;
76113;SDS011;64845;53.086;5.834;2023-07-16T04:26:23;19.02;;;5.50;;
76113;SDS011;64845;53.086;5.834;2023-07-16T04:28:48;16.65;;;6.20;;
76113;SDS011;64845;53.086;5.834;2023-07-16T04:31:14;15.25;;;5.65;;
76113;SDS011;64845;53.086;5.834;2023-07-16T04:33:39;16.58;;;5.63;;
76113;SDS011;64845;53.086;5.834;2023-07-16T04:36:04;15.43;;;5.38;;
76113;SDS011;64845;53.086;5.834;2023-07-16T04:38:30;18.35;;;6.28;;
76113;SDS011;64845;53.086;5.834;2023-07-16T04:40:55;14.27;;;5.15;;
76113;SDS011;64845;53.086;5.834;2023-07-16T04:43:20;17.80;;;4.80;;
76113;SDS011;64845;53.086;5.834;2023-07-16T04:45:46;17.92;;;5.40;;
76113;SDS011;64845;53.086;5.834;2023-07-16T04:48:12;11.90;;;5.20;;
76113;SDS011;64845;53.086;5.834;2023-07-16T04:50:38;19.02;;;6.28;;
76113;SDS011;64845;53.086;5.834;2023-07-16T04:53:03;15.63;;;5.15;;
76113;SDS011;64845;53.086;5.834;2023-07-16T04:55:29;17.58;;;6.20;;
76113;SDS011;64845;53.086;5.834;2023-07-16T04:57:59;22.85;;;5.57;;
76113;SDS011;64845;53.086;5.834;2023-07-16T05:00:24;20.25;;;6.00;;
76113;SDS011;64845;53.086;5.834;2023-07-16T05:02:50;21.88;;;5.82;;
76113;SDS011;64845;53.086;5.834;2023-07-16T05:05:15;15.00;;;5.35;;
76113;SDS011;64845;53.086;5.834;2023-07-16T05:07:41;16.42;;;5.90;;
76113;SDS011;64845;53.086;5.834;2023-07-16T05:10:06;18.50;;;6.55;;
76113;SDS011;64845;53.086;5.834;2023-07-16T05:12:32;21.15;;;6.40;;
76113;SDS011;64845;53.086;5.834;2023-07-16T05:14:57;15.52;;;6.82;;
76113;SDS011;64845;53.086;5.834;2023-07-16T05:17:23;16.92;;;7.20;;
76113;SDS011;64845;53.086;5.834;2023-07-16T05:19:48;21.92;;;6.00;;
76113;SDS011;64845;53.086;5.834;2023-07-16T05:22:14;14.02;;;5.68;;
76113;SDS011;64845;53.086;5.834;2023-07-16T05:24:39;16.15;;;5.80;;
76113;SDS011;64845;53.086;5.834;2023-07-16T05:27:05;17.40;;;5.57;;
76113;SDS011;64845;53.086;5.834;2023-07-16T05:29:30;12.50;;;5.07;;
76113;SDS011;64845;53.086;5.834;2023-07-16T05:31:56;10.82;;;4.78;;
76113;SDS011;64845;53.086;5.834;2023-07-16T05:34:21;17.45;;;5.22;;
76113;SDS011;64845;53.086;5.834;2023-07-16T05:36:46;14.10;;;5.18;;
76113;SDS011;64845;53.086;5.834;2023-07-16T05:39:12;13.35;;;4.82;;
76113;SDS011;64845;53.086;5.834;2023-07-16T05:41:40;15.15;;;5.53;;
76113;SDS011;64845;53.086;5.834;2023-07-16T05:44:06;17.35;;;5.38;;
76113;SDS011;64845;53.086;5.834;2023-07-16T05:46:32;11.43;;;4.45;;
76113;SDS011;64845;53.086;5.834;2023-07-16T05:48:58;16.15;;;4.82;;
76113;SDS011;64845;53.086;5.834;2023-07-16T05:51:23;13.50;;;5.13;;
76113;SDS011;64845;53.086;5.834;2023-07-16T05:53:48;14.15;;;4.70;;
76113;SDS011;64845;53.086;5.834;2023-07-16T05:56:14;15.90;;;4.50;;
76113;SDS011;64845;53.086;5.834;2023-07-16T05:58:40;17.67;;;4.45;;
76113;SDS011;64845;53.086;5.834;2023-07-16T06:01:06;19.23;;;5.00;;
76113;SDS011;64845;53.086;5.834;2023-07-16T06:03:31;15.00;;;4.82;;
76113;SDS011;64845;53.086;5.834;2023-07-16T06:05:57;12.55;;;5.03;;
76113;SDS011;64845;53.086;5.834;2023-07-16T06:08:22;16.92;;;4.80;;
76113;SDS011;64845;53.086;5.834;2023-07-16T06:10:49;12.20;;;4.90;;
76113;SDS011;64845;53.086;5.834;2023-07-16T06:13:15;13.45;;;4.72;;
76113;SDS011;64845;53.086;5.834;2023-07-16T06:15:40;21.52;;;5.55;;
76113;SDS011;64845;53.086;5.834;2023-07-16T06:18:06;13.25;;;4.38;;
76113;SDS011;64845;53.086;5.834;2023-07-16T06:20:31;16.58;;;5.70;;
76113;SDS011;64845;53.086;5.834;2023-07-16T06:22:57;13.75;;;4.88;;
76113;SDS011;64845;53.086;5.834;2023-07-16T06:25:22;16.27;;;5.72;;
76113;SDS011;64845;53.086;5.834;2023-07-16T06:27:47;13.93;;;5.20;;
76113;SDS011;64845;53.086;5.834;2023-07-16T06:30:13;18.13;;;5.85;;
76113;SDS011;64845;53.086;5.834;2023-07-16T06:32:38;16.95;;;5.70;;
76113;SDS011;64845;53.086;5.834;2023-07-16T06:35:04;16.13;;;5.18;;
76113;SDS011;64845;53.086;5.834;2023-07-16T06:37:29;14.32;;;5.38;;
76113;SDS011;64845;53.086;5.834;2023-07-16T06:39:54;10.35;;;4.03;;
76113;SDS011;64845;53.086;5.834;2023-07-16T06:42:20;13.77;;;4.40;;
76113;SDS011;64845;53.086;5.834;2023-07-16T06:44:45;12.48;;;4.75;;
76113;SDS011;64845;53.086;5.834;2023-07-16T06:47:10;16.35;;;4.65;;
76113;SDS011;64845;53.086;5.834;2023-07-16T06:49:36;13.75;;;5.03;;
76113;SDS011;64845;53.086;5.834;2023-07-16T06:52:01;12.27;;;4.47;;
76113;SDS011;64845;53.086;5.834;2023-07-16T06:54:27;18.00;;;4.47;;
76113;SDS011;64845;53.086;5.834;2023-07-16T06:56:52;13.52;;;4.68;;
76113;SDS011;64845;53.086;5.834;2023-07-16T06:59:18;15.82;;;4.40;;
76113;SDS011;64845;53.086;5.834;2023-07-16T07:01:43;15.43;;;5.32;;
76113;SDS011;64845;53.086;5.834;2023-07-16T07:04:09;10.60;;;4.78;;
76113;SDS011;64845;53.086;5.834;2023-07-16T07:06:34;15.00;;;4.68;;
76113;SDS011;64845;53.086;5.834;2023-07-16T07:08:59;15.68;;;4.72;;
76113;SDS011;64845;53.086;5.834;2023-07-16T07:11:25;13.60;;;4.53;;
76113;SDS011;64845;53.086;5.834;2023-07-16T07:13:51;18.40;;;4.38;;
76113;SDS011;64845;53.086;5.834;2023-07-16T07:16:17;19.17;;;4.95;;
76113;SDS011;64845;53.086;5.834;2023-07-16T07:18:42;10.55;;;4.38;;
76113;SDS011;64845;53.086;5.834;2023-07-16T07:21:08;10.07;;;4.13;;
76113;SDS011;64845;53.086;5.834;2023-07-16T07:23:33;12.90;;;4.78;;
76113;SDS011;64845;53.086;5.834;2023-07-16T07:25:59;15.15;;;4.60;;
76113;SDS011;64845;53.086;5.834;2023-07-16T07:28:25;13.38;;;4.30;;
76113;SDS011;64845;53.086;5.834;2023-07-16T07:30:50;13.13;;;4.18;;
76113;SDS011;64845;53.086;5.834;2023-07-16T07:33:16;16.60;;;4.82;;
76113;SDS011;64845;53.086;5.834;2023-07-16T07:35:41;11.48;;;4.93;;
76113;SDS011;64845;53.086;5.834;2023-07-16T07:38:06;10.85;;;4.22;;
76113;SDS011;64845;53.086;5.834;2023-07-16T07:40:32;15.52;;;5.00;;
76113;SDS011;64845;53.086;5.834;2023-07-16T07:42:57;14.00;;;4.30;;
76113;SDS011;64845;53.086;5.834;2023-07-16T07:45:23;16.60;;;5.53;;
76113;SDS011;64845;53.086;5.834;2023-07-16T07:47:49;8.73;;;4.13;;
76113;SDS011;64845;53.086;5.834;2023-07-16T07:50:14;12.30;;;4.97;;
76113;SDS011;64845;53.086;5.834;2023-07-16T07:52:40;12.35;;;4.20;;
76113;SDS011;64845;53.086;5.834;2023-07-16T07:55:06;11.68;;;4.75;;
76113;SDS011;64845;53.086;5.834;2023-07-16T07:57:31;14.07;;;4.80;;
76113;SDS011;64845;53.086;5.834;2023-07-16T07:59:57;19.52;;;4.50;;
76113;SDS011;64845;53.086;5.834;2023-07-16T08:02:23;11.45;;;4.40;;
76113;SDS011;64845;53.086;5.834;2023-07-16T08:04:52;23.55;;;4.72;;
76113;SDS011;64845;53.086;5.834;2023-07-16T08:07:18;11.27;;;4.72;;
76113;SDS011;64845;53.086;5.834;2023-07-16T08:09:44;12.88;;;5.20;;
76113;SDS011;64845;53.086;5.834;2023-07-16T08:12:10;13.07;;;4.50;;
76113;SDS011;64845;53.086;5.834;2023-07-16T08:14:36;19.70;;;4.93;;
76113;SDS011;64845;53.086;5.834;2023-07-16T08:17:01;13.38;;;4.85;;
76113;SDS011;64845;53.086;5.834;2023-07-16T08:19:26;12.73;;;4.60;;
76113;SDS011;64845;53.086;5.834;2023-07-16T08:21:52;15.32;;;4.97;;
76113;SDS011;64845;53.086;5.834;2023-07-16T08:24:17;13.32;;;3.97;;
76113;SDS011;64845;53.086;5.834;2023-07-16T08:26:43;14.10;;;4.63;;
76113;SDS011;64845;53.086;5.834;2023-07-16T08:29:08;16.88;;;4.60;;
76113;SDS011;64845;53.086;5.834;2023-07-16T08:31:33;9.52;;;4.28;;
76113;SDS011;64845;53.086;5.834;2023-07-16T08:33:59;11.77;;;4.68;;
76113;SDS011;64845;53.086;5.834;2023-07-16T08:36:25;11.80;;;5.00;;
76113;SDS011;64845;53.086;5.834;2023-07-16T08:38:50;13.80;;;4.78;;
76113;SDS011;64845;53.086;5.834;2023-07-16T08:41:16;16.10;;;4.10;;
76113;SDS011;64845;53.086;5.834;2023-07-16T08:43:42;16.48;;;4.53;;
76113;SDS011;64845;53.086;5.834;2023-07-16T08:46:10;14.25;;;4.35;;
76113;SDS011;64845;53.086;5.834;2023-07-16T08:48:36;15.50;;;4.57;;
76113;SDS011;64845;53.086;5.834;2023-07-16T08:51:01;11.18;;;4.20;;
76113;SDS011;64845;53.086;5.834;2023-07-16T08:53:28;10.50;;;4.30;;
76113;SDS011;64845;53.086;5.834;2023-07-16T08:55:55;15.27;;;4.75;;
76113;SDS011;64845;53.086;5.834;2023-07-16T08:58:21;11.98;;;3.75;;
76113;SDS011;64845;53.086;5.834;2023-07-16T09:00:49;11.90;;;4.18;;
76113;SDS011;64845;53.086;5.834;2023-07-16T09:03:14;14.18;;;4.72;;
76113;SDS011;64845;53.086;5.834;2023-07-16T09:05:46;14.85;;;4.93;;
76113;SDS011;64845;53.086;5.834;2023-07-16T09:08:12;11.90;;;4.32;;
76113;SDS011;64845;53.086;5.834;2023-07-16T09:10:40;11.82;;;4.10;;
76113;SDS011;64845;53.086;5.834;2023-07-16T09:13:06;16.95;;;3.90;;
76113;SDS011;64845;53.086;5.834;2023-07-16T09:15:31;14.48;;;3.67;;
76113;SDS011;64845;53.086;5.834;2023-07-16T09:17:59;18.15;;;4.55;;
76113;SDS011;64845;53.086;5.834;2023-07-16T09:20:25;17.23;;;4.50;;
76113;SDS011;64845;53.086;5.834;2023-07-16T09:22:53;12.45;;;4.30;;
76113;SDS011;64845;53.086;5.834;2023-07-16T09:25:25;19.95;;;4.72;;
76113;SDS011;64845;53.086;5.834;2023-07-16T09:27:53;19.95;;;4.95;;
76113;SDS011;64845;53.086;5.834;2023-07-16T09:30:19;13.52;;;4.15;;
76113;SDS011;64845;53.086;5.834;2023-07-16T09:32:45;9.85;;;3.78;;
76113;SDS011;64845;53.086;5.834;2023-07-16T09:35:14;14.73;;;4.63;;
76113;SDS011;64845;53.086;5.834;2023-07-16T09:37:40;11.55;;;4.25;;
76113;SDS011;64845;53.086;5.834;2023-07-16T09:40:07;19.13;;;4.85;;
76113;SDS011;64845;53.086;5.834;2023-07-16T09:42:38;10.95;;;4.65;;
76113;SDS011;64845;53.086;5.834;2023-07-16T09:45:07;16.17;;;4.60;;
76113;SDS011;64845;53.086;5.834;2023-07-16T09:47:37;13.07;;;4.00;;
76113;SDS011;64845;53.086;5.834;2023-07-16T09:50:02;12.15;;;4.93;;
76113;SDS011;64845;53.086;5.834;2023-07-16T09:52:29;11.77;;;4.57;;
76113;SDS011;64845;53.086;5.834;2023-07-16T09:54:57;16.80;;;5.03;;
76113;SDS011;64845;53.086;5.834;2023-07-16T09:57:26;9.75;;;3.47;;
76113;SDS011;64845;53.086;5.834;2023-07-16T09:59:53;11.27;;;4.38;;
76113;SDS011;64845;53.086;5.834;2023-07-16T10:02:23;10.13;;;4.13;;
76113;SDS011;64845;53.086;5.834;2023-07-16T10:04:49;15.43;;;3.85;;
76113;SDS011;64845;53.086;5.834;2023-07-16T10:07:21;12.98;;;3.83;;
76113;SDS011;64845;53.086;5.834;2023-07-16T10:12:17;12.95;;;3.70;;
76113;SDS011;64845;53.086;5.834;2023-07-16T10:14:55;18.05;;;3.95;;
76113;SDS011;64845;53.086;5.834;2023-07-16T10:17:24;14.20;;;3.97;;
76113;SDS011;64845;53.086;5.834;2023-07-16T10:25:21;10.88;;;3.58;;
76113;SDS011;64845;53.086;5.834;2023-07-16T10:27:48;15.90;;;3.92;;
76113;SDS011;64845;53.086;5.834;2023-07-16T10:30:15;12.25;;;3.50;;
76113;SDS011;64845;53.086;5.834;2023-07-16T10:32:41;15.93;;;4.07;;
76113;SDS011;64845;53.086;5.834;2023-07-16T10:35:07;16.27;;;3.33;;
76113;SDS011;64845;53.086;5.834;2023-07-16T10:37:36;9.10;;;3.05;;
76113;SDS011;64845;53.086;5.834;2023-07-16T10:40:03;11.75;;;3.97;;
76113;SDS011;64845;53.086;5.834;2023-07-16T10:42:29;15.82;;;3.50;;
76113;SDS011;64845;53.086;5.834;2023-07-16T10:44:59;14.45;;;3.83;;
76113;SDS011;64845;53.086;5.834;2023-07-16T10:47:36;10.38;;;3.92;;
76113;SDS011;64845;53.086;5.834;2023-07-16T10:50:03;13.23;;;3.42;;
76113;SDS011;64845;53.086;5.834;2023-07-16T10:52:30;13.55;;;3.58;;
76113;SDS011;64845;53.086;5.834;2023-07-16T10:54:56;15.18;;;3.78;;
76113;SDS011;64845;53.086;5.834;2023-07-16T10:57:23;13.35;;;3.97;;
76113;SDS011;64845;53.086;5.834;2023-07-16T10:59:50;9.38;;;2.65;;
76113;SDS011;64845;53.086;5.834;2023-07-16T11:02:16;16.52;;;3.38;;
76113;SDS011;64845;53.086;5.834;2023-07-16T11:04:42;15.52;;;3.63;;
76113;SDS011;64845;53.086;5.834;2023-07-16T11:07:09;8.85;;;3.58;;
76113;SDS011;64845;53.086;5.834;2023-07-16T11:09:46;9.85;;;2.70;;
76113;SDS011;64845;53.086;5.834;2023-07-16T11:12:13;16.80;;;3.78;;
76113;SDS011;64845;53.086;5.834;2023-07-16T11:14:43;13.40;;;4.10;;
76113;SDS011;64845;53.086;5.834;2023-07-16T11:19:36;12.57;;;3.00;;
76113;SDS011;64845;53.086;5.834;2023-07-16T11:22:03;9.63;;;3.10;;
76113;SDS011;64845;53.086;5.834;2023-07-16T11:27:06;12.63;;;3.20;;
76113;SDS011;64845;53.086;5.834;2023-07-16T11:29:37;15.20;;;4.05;;
76113;SDS011;64845;53.086;5.834;2023-07-16T11:32:03;12.82;;;3.80;;
76113;SDS011;64845;53.086;5.834;2023-07-16T11:34:29;20.40;;;3.28;;
76113;SDS011;64845;53.086;5.834;2023-07-16T11:36:54;16.80;;;3.80;;
76113;SDS011;64845;53.086;5.834;2023-07-16T11:39:20;16.65;;;4.22;;
76113;SDS011;64845;53.086;5.834;2023-07-16T11:41:55;12.10;;;3.30;;
76113;SDS011;64845;53.086;5.834;2023-07-16T11:44:21;12.55;;;3.50;;
76113;SDS011;64845;53.086;5.834;2023-07-16T11:46:46;15.45;;;4.18;;
76113;SDS011;64845;53.086;5.834;2023-07-16T11:49:11;19.30;;;3.83;;
76113;SDS011;64845;53.086;5.834;2023-07-16T11:51:37;20.70;;;4.30;;
76113;SDS011;64845;53.086;5.834;2023-07-16T11:54:02;14.73;;;3.92;;
76113;SDS011;64845;53.086;5.834;2023-07-16T11:56:28;19.92;;;4.32;;
76113;SDS011;64845;53.086;5.834;2023-07-16T11:58:53;12.40;;;3.78;;
76113;SDS011;64845;53.086;5.834;2023-07-16T12:01:18;20.25;;;4.20;;
76113;SDS011;64845;53.086;5.834;2023-07-16T12:03:44;17.67;;;4.53;;
76113;SDS011;64845;53.086;5.834;2023-07-16T12:06:09;18.80;;;4.32;;
76113;SDS011;64845;53.086;5.834;2023-07-16T12:08:34;20.45;;;4.10;;
76113;SDS011;64845;53.086;5.834;2023-07-16T12:11:00;17.45;;;4.50;;
76113;SDS011;64845;53.086;5.834;2023-07-16T12:13:25;16.92;;;4.20;;
76113;SDS011;64845;53.086;5.834;2023-07-16T12:15:51;15.43;;;3.53;;
76113;SDS011;64845;53.086;5.834;2023-07-16T12:18:16;15.45;;;4.20;;
76113;SDS011;64845;53.086;5.834;2023-07-16T12:20:41;17.13;;;3.30;;
76113;SDS011;64845;53.086;5.834;2023-07-16T12:23:07;19.20;;;4.80;;
76113;SDS011;64845;53.086;5.834;2023-07-16T12:25:33;18.00;;;3.63;;
76113;SDS011;64845;53.086;5.834;2023-07-16T12:27:59;14.45;;;3.53;;
76113;SDS011;64845;53.086;5.834;2023-07-16T12:30:26;20.17;;;3.53;;
76113;SDS011;64845;53.086;5.834;2023-07-16T12:32:52;16.17;;;3.42;;
76113;SDS011;64845;53.086;5.834;2023-07-16T12:35:17;15.63;;;3.55;;
76113;SDS011;64845;53.086;5.834;2023-07-16T12:37:43;12.15;;;2.75;;
76113;SDS011;64845;53.086;5.834;2023-07-16T12:40:08;13.00;;;3.05;;
76113;SDS011;64845;53.086;5.834;2023-07-16T12:42:34;16.92;;;3.22;;
76113;SDS011;64845;53.086;5.834;2023-07-16T12:45:00;11.90;;;2.60;;
76113;SDS011;64845;53.086;5.834;2023-07-16T12:47:26;15.73;;;3.53;;
76113;SDS011;64845;53.086;5.834;2023-07-16T12:49:51;10.23;;;2.72;;
76113;SDS011;64845;53.086;5.834;2023-07-16T12:52:17;15.60;;;3.10;;
76113;SDS011;64845;53.086;5.834;2023-07-16T12:54:42;16.98;;;2.80;;
76113;SDS011;64845;53.086;5.834;2023-07-16T12:57:07;13.40;;;2.58;;
76113;SDS011;64845;53.086;5.834;2023-07-16T12:59:33;20.00;;;3.08;;
76113;SDS011;64845;53.086;5.834;2023-07-16T13:01:58;18.35;;;2.90;;
76113;SDS011;64845;53.086;5.834;2023-07-16T13:04:24;13.05;;;2.53;;
76113;SDS011;64845;53.086;5.834;2023-07-16T13:06:49;15.85;;;3.08;;
76113;SDS011;64845;53.086;5.834;2023-07-16T13:09:15;14.68;;;2.85;;
76113;SDS011;64845;53.086;5.834;2023-07-16T13:11:41;12.02;;;2.22;;
76113;SDS011;64845;53.086;5.834;2023-07-16T13:14:07;20.42;;;3.05;;
76113;SDS011;64845;53.086;5.834;2023-07-16T13:16:33;24.58;;;3.35;;
76113;SDS011;64845;53.086;5.834;2023-07-16T13:18:58;17.70;;;3.53;;
76113;SDS011;64845;53.086;5.834;2023-07-16T13:21:23;22.17;;;3.60;;
76113;SDS011;64845;53.086;5.834;2023-07-16T13:23:49;19.58;;;4.00;;
76113;SDS011;64845;53.086;5.834;2023-07-16T13:26:14;24.58;;;4.28;;
76113;SDS011;64845;53.086;5.834;2023-07-16T13:28:39;20.38;;;4.40;;
76113;SDS011;64845;53.086;5.834;2023-07-16T13:31:05;20.27;;;3.40;;
76113;SDS011;64845;53.086;5.834;2023-07-16T13:33:31;20.15;;;3.40;;
76113;SDS011;64845;53.086;5.834;2023-07-16T13:35:56;15.07;;;2.55;;
76113;SDS011;64845;53.086;5.834;2023-07-16T13:38:24;17.33;;;3.30;;
76113;SDS011;64845;53.086;5.834;2023-07-16T13:40:49;18.00;;;3.25;;
76113;SDS011;64845;53.086;5.834;2023-07-16T13:43:15;14.70;;;2.50;;
76113;SDS011;64845;53.086;5.834;2023-07-16T13:45:40;17.48;;;2.75;;
76113;SDS011;64845;53.086;5.834;2023-07-16T13:48:06;18.27;;;3.58;;
76113;SDS011;64845;53.086;5.834;2023-07-16T13:50:31;21.90;;;2.88;;
76113;SDS011;64845;53.086;5.834;2023-07-16T13:52:56;12.70;;;2.63;;
76113;SDS011;64845;53.086;5.834;2023-07-16T13:55:22;12.45;;;2.50;;
76113;SDS011;64845;53.086;5.834;2023-07-16T13:57:47;11.45;;;2.58;;
76113;SDS011;64845;53.086;5.834;2023-07-16T14:00:13;16.17;;;2.63;;
76113;SDS011;64845;53.086;5.834;2023-07-16T14:02:40;13.43;;;2.67;;
76113;SDS011;64845;53.086;5.834;2023-07-16T14:05:06;15.15;;;3.13;;
76113;SDS011;64845;53.086;5.834;2023-07-16T14:07:32;17.63;;;2.90;;
76113;SDS011;64845;53.086;5.834;2023-07-16T14:09:57;14.55;;;2.33;;
76113;SDS011;64845;53.086;5.834;2023-07-16T14:12:22;11.30;;;2.35;;
76113;SDS011;64845;53.086;5.834;2023-07-16T14:14:48;11.25;;;3.05;;
76113;SDS011;64845;53.086;5.834;2023-07-16T14:17:13;8.18;;;2.35;;
76113;SDS011;64845;53.086;5.834;2023-07-16T14:19:39;13.30;;;2.63;;
76113;SDS011;64845;53.086;5.834;2023-07-16T14:22:04;10.20;;;2.58;;
76113;SDS011;64845;53.086;5.834;2023-07-16T14:24:30;9.90;;;2.63;;
76113;SDS011;64845;53.086;5.834;2023-07-16T14:26:57;10.82;;;2.85;;
76113;SDS011;64845;53.086;5.834;2023-07-16T14:29:25;14.77;;;2.63;;
76113;SDS011;64845;53.086;5.834;2023-07-16T14:31:52;12.38;;;2.67;;
76113;SDS011;64845;53.086;5.834;2023-07-16T14:34:17;15.07;;;2.70;;
76113;SDS011;64845;53.086;5.834;2023-07-16T14:36:43;13.73;;;3.08;;
76113;SDS011;64845;53.086;5.834;2023-07-16T14:39:08;14.77;;;3.13;;
76113;SDS011;64845;53.086;5.834;2023-07-16T14:41:33;12.70;;;2.47;;
76113;SDS011;64845;53.086;5.834;2023-07-16T14:43:59;14.65;;;2.85;;
76113;SDS011;64845;53.086;5.834;2023-07-16T14:46:24;15.18;;;2.58;;
76113;SDS011;64845;53.086;5.834;2023-07-16T14:48:50;15.15;;;2.50;;
76113;SDS011;64845;53.086;5.834;2023-07-16T14:51:20;19.67;;;2.83;;
76113;SDS011;64845;53.086;5.834;2023-07-16T14:53:45;10.55;;;2.78;;